Boulder City, Nevada Weather observations

Data are for observation ending at time listed.
 Day   Time    Ave.   Ave.  Ave.  Vector   Max.   Stn.    Total    Solar   Ave.  
  of    of     Air    Rel.  Wind   Wind    Wind   Baro.  Precip.   Rad.    Soil  
Year   Day     Temp.  Hum.  Speed  Dir.    Gust   Pres.                    Temp. 
2016   (PST)    F      %     mph   deg.    mph     mb.     in.     W/m2     F   
------------------------------------------------------------------------------
 150   10:30   87.2    12    3.3   119     10.2   932.2    0.00     907    84.7
 150   10:40   87.9    12    3.4   162     15.3   932.1    0.00     948    85.0
 150   10:50   88.7    12    5.2   126     11.6   932.0    0.00     921    85.4
 150   11:00   87.9    12    3.4   123     13.5   932.0    0.00     927    85.7
 150   11:10   88.8    12    4.4   141     10.5   931.9    0.00     948    86.1
 150   11:20   89.4    12    5.4   152     13.0   931.9    0.00     977    86.5
 150   11:30   88.2    12    4.3   194      9.0   931.8    0.00     981    87.0
 150   11:40   89.3    12    4.5   131      9.9   931.6    0.00     982    87.4
 150   11:50   89.8    11    7.2   192     13.4   931.5    0.00     981    87.8
 150   12:00   89.7    11    7.0   177     14.3   931.4    0.00     980    88.1
 150   12:10   89.8    11    6.3   159     16.5   931.3    0.00     979    88.5
 150   12:20   89.5    11    3.9   194      9.6   931.1    0.00     971    88.9
 150   12:30   90.1    11    5.6   160     16.6   931.1    0.00     964    89.2
 150   12:40   90.5    11    5.5   158     11.5   931.1    0.00     956    89.6
 150   12:50   89.9    11    5.9   192     15.9   930.9    0.00     948    89.9
 150   13:00   90.1    11    6.1   197     12.1   930.9    0.00     938    90.2
 150   13:10   90.3    11    3.5   190      8.8   930.8    0.00     921    90.5
 150   13:20   91.1    11    5.8   137     13.7   930.7    0.00     906    90.9
 150   13:30   91.0    11    5.3   122     14.2   930.6    0.00     891    91.1
 150   13:40   91.5    10    6.1   164     13.4   930.6    0.00     880    91.5
 150   13:50   90.6    10    3.4   189      8.2   930.5    0.00     859    91.7
 150   14:00   90.8    10    5.0   172     11.4   930.3    0.00     841    92.0
 150   14:10   91.1    10    5.2   140     13.3   930.2    0.00     818    92.2
 150   14:20   91.4    10    4.7   155     12.9   930.0    0.00     789    92.5
 150   14:30   92.4    10    4.4   149     11.6   929.9    0.00     770    92.7
 150   14:40   91.8    10    4.7   184     10.3   929.8    0.00     744    92.9
 150   14:50   91.2    10    4.7   202     10.2   929.7    0.00     718    93.0
 150   15:00   91.7    10    7.1   166     12.1   929.5    0.00     693    93.1
 150   15:10   92.0    10    7.1   156     14.0   929.4    0.00     660    93.2
 150   15:20   91.4    10    5.5   173     16.1   929.2    0.00     630    93.2
 150   15:30   91.4     9    3.8   178     11.2   929.2    0.00     600    93.1
 150   15:40   91.3    10    7.1   176     16.5   929.1    0.00     570    93.0
 150   15:50   91.5    10    4.6   122     10.9   929.1    0.00     535    92.9
 150   16:00   91.7    10    5.6   172     13.2   928.9    0.00     502    92.9
 150   16:10   91.1    10    6.6   153     16.8   928.9    0.00     469    92.9
 150   16:20   90.9    10    5.5   172     12.8   928.7    0.00     436    92.8
 150   16:30   90.7    10    5.3   168      9.8   928.7    0.00     403    92.8
 150   16:40   91.2    10    3.3   133      8.8   928.6    0.00     370    92.8
 150   16:50   91.2     9    4.6   160     10.2   928.5    0.00     337    92.8
 150   17:00   90.9     9    5.3   146     11.9   928.5    0.00     304    92.8
 150   17:10   90.3     9    5.5   196      9.7   928.4    0.00     271    92.8
 150   17:20   89.1    10    6.4   180     13.7   928.3    0.00     238    92.7
 150   17:30   88.8    10    5.3   177     10.4   928.1    0.00     206    92.6
 150   17:40   88.2    10    6.3   185     13.9   928.1    0.00     176    92.5
 150   17:50   87.8     9    7.4   196     13.5   928.2    0.00     146    92.4
 150   18:00   87.6     9    6.4   188     11.6   928.2    0.00     117    92.2
 150   18:10   87.2     9    6.8   197     13.4   928.2    0.00      59    92.1
 150   18:20   86.7     9    7.2   194     11.0   928.2    0.00      26    91.9
 150   18:30   86.4     9    7.2   189     12.6   928.3    0.00      19    91.7
 150   18:40   85.9     9    4.4   190      9.9   928.3    0.00      14    91.5
 150   18:50   85.3    10    4.7   186      8.4   928.4    0.00       8    91.3
 150   19:00   84.9    10    4.7   174      8.9   928.4    0.00       2    91.1
 150   19:10   84.3    10    4.1   165      9.5   928.5    0.00       0    91.0
 150   19:20   83.6    11    4.3   197      8.6   928.6    0.00       0    90.8
 150   19:30   82.9    11    4.6   190      7.3   928.7    0.00       0    90.5
 150   19:40   83.0    11    3.9   174      7.4   928.7    0.00       0    90.3
 150   19:50   82.0    11    2.4   211      6.1   928.8    0.00       0    90.1
 150   20:00   81.7    11    4.0   213      7.9   928.8    0.00       0    89.9
 150   20:10   80.9    11    4.0   228      7.3   928.9    0.00       0    89.7
 150   20:20   81.0    11    3.9   210      6.9   928.9    0.00       0    89.6
 150   20:30   80.9    11    4.2   201      7.5   929.0    0.00       0    89.3
 150   20:40   80.2    11    3.9   202      7.1   929.0    0.00       0    89.1
 150   20:50   80.1    11    4.5   198      8.1   929.1    0.00       0    88.9
 150   21:00   79.7    12    3.8   176      6.5   929.2    0.00       0    88.8
 150   21:10   78.6    12    3.3   215      5.1   929.3    0.00       0    88.6
 150   21:20   77.2    13    2.8   204      4.2   929.3    0.00       0    88.4
 150   21:30   76.9    13    3.0   204      4.0   929.2    0.00       0    88.2
 150   21:40   76.6    13    3.6   217      6.0   929.1    0.00       0    88.0
 150   21:50   76.4    13    3.8   213      5.9   929.1    0.00       0    87.9
 150   22:00   76.1    13    4.5   225      6.2   929.1    0.00       0    87.7
 150   22:10   76.2    12    5.0   223      6.9   929.1    0.00       0    87.5
 150   22:20   76.0    12    3.9   212      6.2   929.0    0.00       0    87.4
 150   22:30   76.4    12    5.3   236      7.7   929.0    0.00       0    87.2
 150   22:40   76.6    12    5.9   240      7.9   929.0    0.00       0    87.0
 150   22:50   76.5    12    6.5   240      9.6   929.0    0.00       0    86.9
 150   23:00   76.3    12    6.3   241      9.9   929.0    0.00       0    86.7
 150   23:10   75.9    12    5.8   238      9.5   929.1    0.00       0    86.6
 150   23:20   75.7    12    5.4   232      7.5   929.1    0.00       0    86.4
 150   23:30   75.3    12    5.4   244      8.9   929.1    0.00       0    86.2
 150   23:40   75.1    12    4.7   237      7.9   929.1    0.00       0    86.1
 150   23:50   75.3    12    5.1   237      7.4   929.0    0.00       0    85.9
 151    0:00   75.7    12    4.7   236      7.4   929.0    0.00       0    85.8
 151    0:10   76.1    12    4.7   237      7.0   929.0    0.00       0    85.6
 151    0:20   76.4    12    4.9   237      7.7   929.0    0.00       0    85.5
 151    0:30   75.8    12    4.0   227      6.4   928.9    0.00       0    85.4
 151    0:40   75.0    12    4.0   217      6.1   928.8    0.00       0    85.2
 151    0:50   74.5    12    5.0   208      8.1   928.7    0.00       0    85.0
 151    1:00   74.7    12    5.4   219      9.6   928.7    0.00       0    84.9
 151    1:10   74.2    13    4.9   228      7.8   928.8    0.00       0    84.8
 151    1:20   73.8    13    2.2   241      5.5   928.9    0.00       0    84.7
 151    1:30   73.0    14    1.0   342      4.1   928.9    0.00       0    84.5
 151    1:40   72.2    14    0.9    17      2.3   928.8    0.00       0    84.4
 151    1:50   72.1    14    1.0   280      2.0   928.8    0.00       0    84.3
 151    2:00   71.4    14    1.1   215      2.6   928.7    0.00       0    84.2
 151    2:10   70.6    15    1.7   226      3.0   928.6    0.00       0    84.0
 151    2:20   69.9    15    1.8   227      2.9   928.6    0.00       0    83.9
 151    2:30   68.9    16    2.4   230      3.4   928.5    0.00       0    83.8
 151    2:40   68.4    16    1.2   249      2.7   928.4    0.00       0    83.6
 151    2:50   68.5    16    1.3   220      2.9   928.4    0.00       0    83.5
 151    3:00   68.0    16    2.9   207      3.9   928.4    0.00       0    83.4
 151    3:10   67.9    17    3.0   230      3.7   928.4    0.00       0    83.2
 151    3:20   67.9    17    3.3   228      4.4   928.5    0.00       0    83.1
 151    3:30   68.3    17    3.1   220      4.5   928.5    0.00       0    83.0
 151    3:40   68.1    16    2.8   207      4.2   928.6    0.00       0    82.8
 151    3:50   69.1    16    3.7   225      4.7   928.6    0.00       0    82.7
 151    4:00   68.8    16    3.3   230      4.1   928.7    0.00       0    82.6
 151    4:10   69.0    16    3.8   217      4.6   928.7    0.00       1    82.5
 151    4:20   68.0    16    3.3   216      4.2   928.9    0.00       3    82.3
 151    4:30   68.4    16    3.5   220      4.6   929.0    0.00       3    82.2
 151    4:40   68.2    16    2.9   234      4.7   929.0    0.00       6    82.1
 151    4:50   67.7    17    2.3   216      3.3   929.1    0.00      12    81.9
 151    5:00   67.8    17    2.5   213      3.4   929.2    0.00      22    81.8
 151    5:10   69.9    16    1.1   252      2.5   929.3    0.00      26    81.7
 151    5:20   70.1    16    0.6   281      1.7   929.4    0.00      34    81.6
 151    5:30   71.0    17    1.0   253      1.7   929.4    0.00      84    81.5
 151    5:40   72.5    16    1.1   196      2.4   929.6    0.00      94    81.4
 151    5:50   74.0    16    0.2   125      1.5   929.6    0.00     136    81.2
 151    6:00   77.6    17    0.0     0      0.0   929.8    0.00     239    81.1
 151    6:10   78.7    15    0.2   325      0.8   930.0    0.00      89    81.1
 151    6:20   79.1    14    0.8   155      3.7   930.1    0.00     328    81.0
 151    6:30   79.0    14    2.8   164      4.5   930.3    0.00     364    81.0
 151    6:40   76.6    17    4.0   204      6.6   930.6    0.00     401    80.9
 151    6:50   75.4    15    4.0   195      6.2   930.7    0.00     442    80.8
 151    7:00   76.8    14    4.0   180      5.9   930.8    0.00     480    80.8
 151    7:10   78.2    13    3.9   174      6.9   930.8    0.00     515    80.8
 151    7:20   80.0    12    3.7   164      6.3   930.9    0.00     552    80.9
 151    7:30   80.2    12    4.2   169      6.6   931.1    0.00     576    81.0
 151    7:40   80.8    12    4.0   183      7.5   931.2    0.00     603    81.1
 151    7:50   80.7    12    3.3   190      5.6   931.4    0.00     632    81.1
 151    8:00   81.7    11    2.7   166      6.2   931.4    0.00     657    81.3
 151    8:10   82.7    11    2.7   182      6.1   931.6    0.00     681    81.4
 151    8:20   84.5    11    1.7   117      3.7   931.8    0.00     707    81.6
 151    8:30   85.3    12    2.0    54      5.0   931.8    0.00     729    81.8
 151    8:40   84.5    13    2.7    28      6.0   931.9    0.00     755    82.0
 151    8:50   84.3    13    2.9    26      5.6   931.8    0.00     781    82.3
 151    9:00   84.3    13    2.9    17      6.2   931.8    0.00     805    82.5
 151    9:10   84.7    12    2.1    36      6.2   931.7    0.00     827    82.8
 151    9:20   85.5    12    1.9     7      4.5   931.7    0.00     846    83.1
 151    9:30   86.9    10    1.5   186      3.7   931.6    0.00     804    83.4
 151    9:40   86.5    10    1.8   234      3.7   931.7    0.00     827    83.7
 151    9:50   88.0    10    1.5   358      5.3   931.6    0.00     791    84.0
 151   10:00   88.1    10    3.1    23      6.5   931.6    0.00     769    84.4
 151   10:10   88.3    10    3.7    33      7.7   931.6    0.00     900    84.7
 151   10:20   87.8    10    5.4    26     11.5   931.6    0.00     937    85.1

Return to Boulder City, Nevada graphs page.


Western Regional Climate Center,wrcc@dri.edu